Terminal Aerodrome Forecast
Issued by NWS Amarillo, TX

Home | Current Version | Previous Version | Text Only | Print | Product List | Glossary On
Versions: 1 2 3 4 5 6 7 8 9 10 11 12 13 14 15 16 17 18 19
000
FTUS44 KAMA 261720
TAFAMA
TAF
KAMA 261720Z 2618/2718 34019G28KT P6SM SCT030 SCT200
     FM262300 11009KT P6SM BKN200
     FM270800 17016KT P6SM BKN200
     FM271400 22018G27KT P6SM SCT200=

USA.gov is the U.S. government's official web portal to all federal, state and local government web resources and services.